This is the latest recevied weather packets stored in our database for station/object YH8VA-1. If no packets are shown the sender has not sent any weather packets the latest 10 day(s).
| Time | Temp. | Humidity | Pressure | Rain* | Wind** | Luminosity | Snow |
|---|---|---|---|---|---|---|---|
| 1778167193 | 32.78° C | 60% | 999 hPa | - | - | 0 W/m² | - |
| 1778166871 | 32.78° C | 60% | 999 hPa | - | - | 0 W/m² | - |
| 1778166549 | 32.78° C | 61% | 999 hPa | - | - | 0 W/m² | - |
| 1778166227 | 32.78° C | 61% | 999 hPa | - | - | 0 W/m² | - |
| 1778165906 | 32.22° C | 62% | 999 hPa | - | - | 0 W/m² | - |
| 1778165583 | 31.11° C | 65% | 999 hPa | - | - | 0 W/m² | - |
| 1778165261 | 28.89° C | 73% | 999 hPa | - | - | 0 W/m² | - |
| 1778163841 | 32.78° C | 60% | 999 hPa | - | - | 0 W/m² | - |
| 1778163519 | 32.78° C | 60% | 999 hPa | - | - | 0 W/m² | - |
| 1778163197 | 32.78° C | 60% | 999 hPa | - | - | 0 W/m² | - |
| 1778162875 | 32.78° C | 60% | 999 hPa | - | - | 0 W/m² | - |
| 1778162553 | 32.78° C | 60% | 999 hPa | - | - | 0 W/m² | - |
| 1778162231 | 32.78° C | 60% | 999 hPa | - | - | 0 W/m² | - |
| 1778161909 | 32.78° C | 60% | 999 hPa | - | - | 0 W/m² | - |
| 1778161587 | 32.78° C | 60% | 999 hPa | - | - | 0 W/m² | - |
| 1778161265 | 32.78° C | 60% | 999 hPa | - | - | 0 W/m² | - |
| 1778160943 | 32.78° C | 60% | 999 hPa | - | - | 0 W/m² | - |
| 1778160621 | 32.78° C | 60% | 999 hPa | - | - | 0 W/m² | - |
| 1778160299 | 32.78° C | 61% | 999 hPa | - | - | 0 W/m² | - |
| 1778159977 | 32.78° C | 61% | 999 hPa | - | - | 0 W/m² | - |
| 1778159655 | 32.22° C | 62% | 999 hPa | - | - | 0 W/m² | - |
| 1778159332 | 31.67° C | 66% | 999 hPa | - | - | 0 W/m² | - |
| 1778159009 | 29.44° C | 73% | 999 hPa | - | - | 0 W/m² | - |
| 1778158963 | 28.89° C | 75% | 999 hPa | - | - | 0 W/m² | - |
| 1778157609 | 33.33° C | 60% | 999 hPa | - | - | 0 W/m² | - |
* Rain since midnight (hover to see other rain measurements)
** Current wind speed in m/s (hover to see current wind gust speed)